createdAt,value
2023-04-09T00:01:59.112Z,10.57
2023-04-09T00:04:29.913Z,10.43
2023-04-09T00:06:57.470Z,10.10
2023-04-09T00:09:25.419Z,10.13
2023-04-09T00:11:57.042Z,10.10
2023-04-09T00:14:28.018Z,10.53
2023-04-09T00:16:57.015Z,10.63
2023-04-09T00:19:25.289Z,10.30
2023-04-09T00:21:53.405Z,9.60
2023-04-09T00:24:21.291Z,9.20
2023-04-09T00:26:50.469Z,9.27
2023-04-09T00:29:21.061Z,9.20
2023-04-09T00:31:49.664Z,9.40
2023-04-09T00:34:17.204Z,9.43
2023-04-09T00:36:44.617Z,8.70
2023-04-09T00:39:12.183Z,8.60
2023-04-09T00:41:40.509Z,9.10
2023-04-09T00:44:07.795Z,8.53
2023-04-09T00:46:36.017Z,9.40
2023-04-09T00:49:03.305Z,9.20
2023-04-09T00:51:31.623Z,9.17
2023-04-09T00:54:00.001Z,9.03
2023-04-09T00:56:34.202Z,9.33
2023-04-09T00:59:04.345Z,8.83
2023-04-09T01:01:32.275Z,8.77
2023-04-09T01:03:59.747Z,8.80
2023-04-09T01:06:40.652Z,9.23
2023-04-09T01:09:16.179Z,9.10
2023-04-09T01:12:13.128Z,8.40
2023-04-09T01:14:53.825Z,9.07
2023-04-09T01:17:34.959Z,9.47
2023-04-09T01:20:06.248Z,10.07
2023-04-09T01:22:48.581Z,10.57
2023-04-09T01:25:34.726Z,13.10
2023-04-09T01:28:16.932Z,14.13
2023-04-09T01:30:48.686Z,14.13
2023-04-09T01:33:16.737Z,14.43
2023-04-09T01:35:49.429Z,15.20
2023-04-09T01:38:21.821Z,14.50
2023-04-09T01:40:56.553Z,14.30
2023-04-09T01:43:25.112Z,14.90
2023-04-09T01:45:53.780Z,15.03
2023-04-09T01:48:22.705Z,14.50
2023-04-09T01:50:51.824Z,12.57
2023-04-09T01:53:21.731Z,12.50
2023-04-09T01:55:49.962Z,13.37
2023-04-09T01:58:27.059Z,13.87
2023-04-09T02:01:00.914Z,13.63
2023-04-09T02:03:40.041Z,13.33
2023-04-09T02:06:29.662Z,13.20
2023-04-09T02:09:08.628Z,13.60
2023-04-09T02:11:41.639Z,12.83
2023-04-09T02:14:14.187Z,12.97
2023-04-09T02:16:42.258Z,13.40
2023-04-09T02:19:13.821Z,13.00
2023-04-09T02:21:55.158Z,13.03
2023-04-09T02:24:28.546Z,12.97
2023-04-09T02:27:02.410Z,12.87
2023-04-09T02:29:38.519Z,12.73
2023-04-09T02:32:09.511Z,12.80
2023-04-09T02:34:40.287Z,13.60
2023-04-09T02:37:09.181Z,13.23
2023-04-09T02:39:37.500Z,14.27
2023-04-09T02:42:09.139Z,14.47
2023-04-09T02:44:37.963Z,13.67
2023-04-09T02:47:09.273Z,13.80
2023-04-09T02:49:43.878Z,13.80
2023-04-09T02:52:12.457Z,14.20
2023-04-09T02:54:40.213Z,14.93
2023-04-09T02:57:10.128Z,13.63
2023-04-09T02:59:39.688Z,14.20
2023-04-09T03:02:10.066Z,13.00
2023-04-09T03:04:37.930Z,13.03
2023-04-09T03:07:07.692Z,13.47
2023-04-09T03:09:41.546Z,14.17
2023-04-09T03:12:11.643Z,13.10
2023-04-09T03:14:40.295Z,12.97
2023-04-09T03:17:09.884Z,13.07
2023-04-09T03:19:41.455Z,12.73
2023-04-09T03:22:13.249Z,12.43
2023-04-09T03:24:46.945Z,11.60
2023-04-09T03:27:19.558Z,11.50
2023-04-09T03:34:11.478Z,11.30
2023-04-09T03:36:42.173Z,11.33
2023-04-09T03:39:17.607Z,11.60
2023-04-09T03:41:49.409Z,11.70
2023-04-09T03:44:25.100Z,11.57
2023-04-09T03:47:06.731Z,11.47
2023-04-09T03:49:38.358Z,11.70
2023-04-09T03:52:17.202Z,11.50
2023-04-09T03:54:53.266Z,11.50
2023-04-09T03:57:29.559Z,13.63
2023-04-09T04:00:06.248Z,13.50
2023-04-09T04:02:51.189Z,14.17
2023-04-09T04:05:29.247Z,14.53
2023-04-09T04:08:01.341Z,14.77
2023-04-09T04:10:41.297Z,15.07
2023-04-09T04:13:13.414Z,14.00
2023-04-09T04:16:14.567Z,13.87
2023-04-09T04:18:44.900Z,13.73
2023-04-09T04:21:15.204Z,13.63
2023-04-09T04:23:47.781Z,13.67
2023-04-09T04:26:26.643Z,14.87
2023-04-09T04:28:54.462Z,14.53
2023-04-09T04:31:49.129Z,14.50
2023-04-09T04:34:21.626Z,15.10
2023-04-09T04:36:58.547Z,14.07
2023-04-09T04:39:32.970Z,14.77
2023-04-09T04:42:16.817Z,14.60
2023-04-09T04:44:45.256Z,13.80
2023-04-09T04:47:33.480Z,14.57
2023-04-09T04:50:04.176Z,14.50
2023-04-09T04:52:42.524Z,14.00
2023-04-09T04:55:10.446Z,13.83
2023-04-09T04:57:39.500Z,13.07
2023-04-09T05:00:09.738Z,14.27
2023-04-09T05:02:38.199Z,15.07
2023-04-09T05:05:35.965Z,14.43
2023-04-09T05:08:06.140Z,15.07
2023-04-09T05:10:33.804Z,14.73
2023-04-09T05:13:01.414Z,14.73
2023-04-09T05:15:34.449Z,14.47
2023-04-09T05:18:03.446Z,13.97
2023-04-09T05:20:31.702Z,14.77
2023-04-09T05:23:10.776Z,14.10
2023-04-09T05:25:46.818Z,15.37
2023-04-09T05:28:24.364Z,13.93
2023-04-09T05:31:03.322Z,14.57
2023-04-09T05:33:38.225Z,14.67
2023-04-09T05:36:18.841Z,15.63
2023-04-09T05:38:48.670Z,15.20
2023-04-09T05:41:29.173Z,15.80
2023-04-09T05:44:19.340Z,14.60
2023-04-09T05:46:59.692Z,15.10
2023-04-09T05:50:22.989Z,16.20
2023-04-09T05:52:57.477Z,15.33
2023-04-09T05:55:35.346Z,14.73
2023-04-09T05:58:03.550Z,15.70
2023-04-09T06:00:33.655Z,15.43
2023-04-09T06:03:01.275Z,16.07
2023-04-09T06:05:28.824Z,15.77
2023-04-09T06:07:56.809Z,15.27
2023-04-09T06:10:26.290Z,15.67
2023-04-09T06:12:55.756Z,15.63
2023-04-09T06:15:23.038Z,16.53
2023-04-09T06:17:57.455Z,15.87
2023-04-09T06:20:28.397Z,15.83
2023-04-09T06:22:59.328Z,16.50
2023-04-09T06:25:27.651Z,16.13
2023-04-09T06:27:55.322Z,16.23
2023-04-09T06:30:24.904Z,15.93
2023-04-09T06:32:57.606Z,16.53
2023-04-09T06:35:26.264Z,16.13
2023-04-09T06:37:54.285Z,16.83
2023-04-09T06:40:23.426Z,16.73
2023-04-09T06:42:57.912Z,16.40
2023-04-09T06:45:34.073Z,17.00
2023-04-09T06:48:02.543Z,16.60
2023-04-09T06:50:37.451Z,16.43
2023-04-09T06:53:06.980Z,16.33
2023-04-09T06:55:34.656Z,17.20
2023-04-09T06:58:09.378Z,15.43
2023-04-09T07:00:38.757Z,16.80
2023-04-09T07:03:10.676Z,17.17
2023-04-09T07:06:07.672Z,16.57
2023-04-09T07:08:38.649Z,16.80
2023-04-09T07:11:06.285Z,19.13
2023-04-09T07:13:39.910Z,16.90
2023-04-09T07:16:07.338Z,16.93
2023-04-09T07:18:37.827Z,15.70
2023-04-09T07:21:08.329Z,15.93
2023-04-09T07:23:36.792Z,15.87
2023-04-09T07:26:11.441Z,15.03
2023-04-09T07:28:46.947Z,14.90
2023-04-09T07:31:29.823Z,13.87
2023-04-09T07:34:01.265Z,13.73
2023-04-09T07:36:31.923Z,13.60
2023-04-09T07:39:03.629Z,13.87
2023-04-09T07:41:34.026Z,13.23
2023-04-09T07:44:07.880Z,15.75
2023-04-09T07:46:37.188Z,15.15
2023-04-09T07:49:16.718Z,14.32
2023-04-09T07:51:47.126Z,14.25
2023-04-09T07:54:19.195Z,14.50
2023-04-09T07:56:54.768Z,14.55
2023-04-09T07:59:24.662Z,15.00
2023-04-09T08:01:55.677Z,14.75
2023-04-09T08:04:28.253Z,15.00
2023-04-09T08:06:57.880Z,15.43
2023-04-09T08:09:31.849Z,16.50
2023-04-09T08:12:00.230Z,14.77
2023-04-09T08:14:31.459Z,14.65
2023-04-09T08:16:59.285Z,15.52
2023-04-09T08:19:31.546Z,15.90
2023-04-09T08:22:02.116Z,14.82
2023-04-09T08:24:31.345Z,14.93
2023-04-09T08:26:59.914Z,15.98
2023-04-09T08:29:32.178Z,15.00
2023-04-09T08:32:04.012Z,13.02
2023-04-09T08:34:32.730Z,12.75
2023-04-09T08:37:00.829Z,11.07
2023-04-09T08:39:31.806Z,11.93
2023-04-09T08:42:02.314Z,12.05
2023-04-09T08:44:30.942Z,12.13
2023-04-09T08:47:05.752Z,12.15
2023-04-09T08:52:22.311Z,12.02
2023-04-09T08:54:51.992Z,12.52
2023-04-09T08:57:21.209Z,13.15
2023-04-09T08:59:50.838Z,12.93
2023-04-09T09:02:18.416Z,12.15
2023-04-09T09:04:47.183Z,12.70
2023-04-09T09:07:18.654Z,12.18
2023-04-09T09:10:07.554Z,11.80
2023-04-09T09:13:03.498Z,13.32
2023-04-09T09:15:32.052Z,12.73
2023-04-09T09:18:02.084Z,12.60
2023-04-09T09:20:35.249Z,12.90
2023-04-09T09:23:06.432Z,12.32
2023-04-09T09:25:38.669Z,13.07
2023-04-09T09:28:13.381Z,19.13
2023-04-09T09:30:49.210Z,12.82
2023-04-09T09:33:17.493Z,12.90
2023-04-09T09:35:54.515Z,12.27
2023-04-09T09:38:25.761Z,11.48
2023-04-09T09:40:55.563Z,12.88
2023-04-09T09:43:24.365Z,13.27
2023-04-09T09:45:53.347Z,12.80
2023-04-09T09:48:25.283Z,12.38
2023-04-09T09:50:56.081Z,13.45
2023-04-09T09:53:27.307Z,14.40
2023-04-09T09:56:06.834Z,13.73
2023-04-09T09:58:51.268Z,13.25
2023-04-09T10:01:20.664Z,13.45
2023-04-09T10:03:55.145Z,13.82
2023-04-09T10:06:25.059Z,13.75
2023-04-09T10:08:54.534Z,14.57
2023-04-09T10:11:23.517Z,14.00
2023-04-09T10:14:03.180Z,13.68
2023-04-09T10:16:35.055Z,14.05
2023-04-09T10:19:03.630Z,13.23
2023-04-09T10:21:53.931Z,13.60
2023-04-09T10:24:24.321Z,13.10
2023-04-09T10:26:59.033Z,12.88
2023-04-09T10:29:29.833Z,14.15
2023-04-09T10:32:09.870Z,12.75
2023-04-09T10:34:47.643Z,13.48
2023-04-09T10:37:20.284Z,12.65
2023-04-09T10:39:55.380Z,11.70
2023-04-09T10:42:25.656Z,11.90
2023-04-09T10:45:17.267Z,13.00
2023-04-09T10:47:48.485Z,13.40
2023-04-09T10:50:27.502Z,13.20
2023-04-09T10:52:59.439Z,12.95
2023-04-09T10:55:39.152Z,12.60
2023-04-09T10:58:22.967Z,12.60
2023-04-09T11:04:33.396Z,11.55
2023-04-09T11:07:02.009Z,12.75
2023-04-09T11:09:31.650Z,12.45
2023-04-09T11:12:22.938Z,12.27
2023-04-09T11:14:57.716Z,12.75
2023-04-09T11:17:27.161Z,13.23
2023-04-09T11:19:57.000Z,13.50
2023-04-09T11:22:27.586Z,13.27
2023-04-09T11:24:58.227Z,13.00
2023-04-09T11:27:26.720Z,11.77
2023-04-09T11:29:58.706Z,11.38
2023-04-09T11:32:31.470Z,9.93
2023-04-09T11:35:01.460Z,10.35
2023-04-09T11:37:31.018Z,10.80
2023-04-09T11:40:09.824Z,11.10
2023-04-09T11:42:41.072Z,12.18
2023-04-09T11:45:13.023Z,12.07
2023-04-09T11:47:49.684Z,12.45
2023-04-09T11:50:28.635Z,11.43
2023-04-09T11:53:02.968Z,12.73
2023-04-09T11:55:36.172Z,11.98
2023-04-09T11:58:12.001Z,11.95
2023-04-09T12:00:45.825Z,11.57
2023-04-09T12:06:06.312Z,11.55
2023-04-09T12:08:42.481Z,11.75
2023-04-09T12:11:15.913Z,11.32
2023-04-09T12:13:47.629Z,11.18
2023-04-09T12:16:15.585Z,10.90
2023-04-09T12:18:43.642Z,10.55
2023-04-09T12:21:18.136Z,11.32
2023-04-09T12:23:47.448Z,10.45
2023-04-09T12:26:14.812Z,9.63
2023-04-09T12:28:45.404Z,10.43
2023-04-09T12:31:12.739Z,9.70
2023-04-09T12:33:41.390Z,8.80
2023-04-09T12:36:10.356Z,8.98
2023-04-09T12:38:38.933Z,8.85
2023-04-09T12:41:08.875Z,8.43
2023-04-09T12:43:36.540Z,8.63
2023-04-09T12:46:06.817Z,8.60
2023-04-09T12:48:39.011Z,10.77
2023-04-09T12:51:07.192Z,10.35
2023-04-09T12:53:38.201Z,9.10
2023-04-09T12:56:06.369Z,10.02
2023-04-09T12:58:33.817Z,9.93
2023-04-09T13:01:06.790Z,10.38
2023-04-09T13:03:34.738Z,9.73
2023-04-09T13:06:02.241Z,10.05
2023-04-09T13:08:31.511Z,9.40
2023-04-09T13:10:59.681Z,8.45
2023-04-09T13:13:26.979Z,8.55
2023-04-09T13:15:54.410Z,8.23
2023-04-09T13:18:22.513Z,8.90
2023-04-09T13:20:49.918Z,9.05
2023-04-09T13:23:17.539Z,8.77
2023-04-09T13:25:45.420Z,9.60
2023-04-09T13:28:13.765Z,9.40
2023-04-09T13:30:41.307Z,8.85
2023-04-09T13:33:09.002Z,9.60
2023-04-09T13:35:41.993Z,9.48
2023-04-09T13:38:09.646Z,9.88
2023-04-09T13:40:38.217Z,9.77
2023-04-09T13:43:05.697Z,8.80
2023-04-09T13:45:33.274Z,9.32
2023-04-09T13:48:01.806Z,9.50
2023-04-09T13:50:30.811Z,10.00
2023-04-09T13:52:58.372Z,9.77
2023-04-09T13:55:25.910Z,9.38
2023-04-09T13:57:53.579Z,9.98
2023-04-09T14:00:27.653Z,9.40
2023-04-09T14:02:55.635Z,11.43
2023-04-09T14:05:24.445Z,9.70
2023-04-09T14:07:55.841Z,10.90
2023-04-09T14:10:30.328Z,9.85
2023-04-09T14:12:58.411Z,10.27
2023-04-09T14:15:27.242Z,9.80
2023-04-09T14:17:54.586Z,10.18
2023-04-09T14:20:27.160Z,9.65
2023-04-09T14:22:56.355Z,9.27
2023-04-09T14:25:25.881Z,9.65
2023-04-09T14:27:56.543Z,7.40
2023-04-09T14:30:26.753Z,7.40
2023-04-09T14:32:56.034Z,6.35
2023-04-09T14:35:26.681Z,5.55
2023-04-09T14:37:55.129Z,6.07
2023-04-09T14:40:22.516Z,6.40
2023-04-09T14:42:58.320Z,6.65
2023-04-09T14:45:25.703Z,6.30
2023-04-09T14:47:57.570Z,5.47
2023-04-09T14:50:25.234Z,6.30
2023-04-09T14:52:53.078Z,5.40
2023-04-09T14:55:23.707Z,4.63
2023-04-09T14:57:52.922Z,5.55
2023-04-09T15:00:20.624Z,5.38
2023-04-09T15:02:48.456Z,5.03
2023-04-09T15:05:17.499Z,4.97
2023-04-09T15:07:46.517Z,5.88
2023-04-09T15:10:13.961Z,5.28
2023-04-09T15:12:42.409Z,5.10
2023-04-09T15:15:09.993Z,4.85
2023-04-09T15:17:37.633Z,4.90
2023-04-09T15:20:06.331Z,5.30
2023-04-09T15:22:33.888Z,6.47
2023-04-09T15:25:01.381Z,6.38
2023-04-09T15:27:28.897Z,6.75
2023-04-09T15:29:56.290Z,6.78
2023-04-09T15:32:25.179Z,7.15
2023-04-09T15:34:55.261Z,7.20
2023-04-09T15:37:23.859Z,7.78
2023-04-09T15:39:51.485Z,7.65
2023-04-09T15:42:22.957Z,7.90
2023-04-09T15:44:51.251Z,7.53
2023-04-09T15:47:18.937Z,8.13
2023-04-09T15:49:47.712Z,7.30
2023-04-09T15:52:19.922Z,5.95
2023-04-09T15:54:59.492Z,6.18
2023-04-09T15:57:27.602Z,6.25
2023-04-09T15:59:55.128Z,6.00
2023-04-09T16:02:34.700Z,5.75
2023-04-09T16:05:03.701Z,5.28
2023-04-09T16:07:31.239Z,5.35
2023-04-09T16:10:02.018Z,5.60
2023-04-09T16:12:30.472Z,5.60
2023-04-09T16:14:58.537Z,5.88
2023-04-09T16:17:30.920Z,5.82
2023-04-09T16:19:59.738Z,6.43
2023-04-09T16:22:29.737Z,6.20
2023-04-09T16:24:59.883Z,6.88
2023-04-09T16:27:31.383Z,7.72
2023-04-09T16:30:03.187Z,6.85
2023-04-09T16:32:35.642Z,6.65
2023-04-09T16:35:16.076Z,6.53
2023-04-09T16:37:57.758Z,5.95
2023-04-09T16:40:30.336Z,6.78
2023-04-09T16:43:02.373Z,6.75
2023-04-09T16:45:30.939Z,6.78
2023-04-09T16:48:03.103Z,5.90
2023-04-09T16:50:38.733Z,6.30
2023-04-09T16:53:07.544Z,6.57
2023-04-09T16:55:35.507Z,6.07
2023-04-09T16:58:12.092Z,7.35
2023-04-09T17:00:48.741Z,7.78
2023-04-09T17:03:18.692Z,7.53
2023-04-09T17:05:49.466Z,6.50
2023-04-09T17:08:22.547Z,6.60
2023-04-09T17:11:05.802Z,6.43
2023-04-09T17:13:38.598Z,6.45
2023-04-09T17:16:08.937Z,6.03
2023-04-09T17:18:40.949Z,6.82
2023-04-09T17:21:08.258Z,6.93
2023-04-09T17:23:43.361Z,7.72
2023-04-09T17:26:12.877Z,7.70
2023-04-09T17:28:42.446Z,9.05
2023-04-09T17:31:17.289Z,9.23
2023-04-09T17:33:51.152Z,9.85
2023-04-09T17:36:28.282Z,9.93
2023-04-09T17:38:58.514Z,9.75
2023-04-09T17:41:40.234Z,10.23
2023-04-09T17:44:12.559Z,9.80
2023-04-09T17:46:45.901Z,11.02
2023-04-09T17:49:16.445Z,10.75
2023-04-09T17:51:46.681Z,11.30
2023-04-09T17:54:17.120Z,10.32
2023-04-09T17:56:45.461Z,11.13
2023-04-09T17:59:14.778Z,10.77
2023-04-09T18:05:29.100Z,10.00
2023-04-09T18:07:56.836Z,10.50
2023-04-09T18:10:26.133Z,10.40
2023-04-09T18:12:53.440Z,10.20
2023-04-09T18:15:22.405Z,9.85
2023-04-09T18:17:56.751Z,10.20
2023-04-09T18:20:25.502Z,10.85
2023-04-09T18:22:52.994Z,10.60
2023-04-09T18:25:23.274Z,10.95
2023-04-09T18:27:53.807Z,11.75
2023-04-09T18:30:22.450Z,11.68
2023-04-09T18:32:51.874Z,11.95
2023-04-09T18:35:22.148Z,11.98
2023-04-09T18:37:52.462Z,10.77
2023-04-09T18:40:21.939Z,12.00
2023-04-09T18:42:53.602Z,11.80
2023-04-09T18:45:21.783Z,12.02
2023-04-09T18:47:52.875Z,11.25
2023-04-09T18:50:24.614Z,11.52
2023-04-09T18:52:53.406Z,10.20
2023-04-09T18:55:23.384Z,10.32
2023-04-09T18:57:56.069Z,9.30
2023-04-09T19:00:26.290Z,10.07
2023-04-09T19:02:54.640Z,9.80
2023-04-09T19:05:22.940Z,9.77
2023-04-09T19:07:50.745Z,10.15
2023-04-09T19:10:18.431Z,10.73
2023-04-09T19:12:51.539Z,10.00
2023-04-09T19:15:28.582Z,14.48
2023-04-09T19:17:58.535Z,10.30
2023-04-09T19:20:30.593Z,9.25
2023-04-09T19:22:59.789Z,8.85
2023-04-09T19:25:32.869Z,8.52
2023-04-09T19:28:03.693Z,8.23
2023-04-09T19:30:35.054Z,7.75
2023-04-09T19:33:02.625Z,8.07
2023-04-09T19:35:30.301Z,7.78
2023-04-09T19:37:57.702Z,8.35
2023-04-09T19:40:27.194Z,7.60
2023-04-09T19:42:56.045Z,7.30
2023-04-09T19:45:23.656Z,7.97
2023-04-09T19:47:52.952Z,7.70
2023-04-09T19:50:21.453Z,7.78
2023-04-09T19:52:48.804Z,7.65
2023-04-09T19:55:16.126Z,7.97
2023-04-09T19:57:44.307Z,7.55
2023-04-09T20:00:14.401Z,7.65
2023-04-09T20:02:42.799Z,8.20
2023-04-09T20:05:10.600Z,8.30
2023-04-09T20:07:42.144Z,8.55
2023-04-09T20:10:11.732Z,11.05
2023-04-09T20:12:41.425Z,9.18
2023-04-09T20:15:12.621Z,17.13
2023-04-09T20:17:42.332Z,10.27
2023-04-09T20:20:14.137Z,10.30
2023-04-09T20:22:43.466Z,9.95
2023-04-09T20:25:35.343Z,10.23
2023-04-09T20:28:08.875Z,10.90
2023-04-09T20:30:38.197Z,11.07
2023-04-09T20:33:09.260Z,11.18
2023-04-09T20:35:40.930Z,11.65
2023-04-09T20:38:10.730Z,11.43
2023-04-09T20:40:45.940Z,11.90
2023-04-09T20:43:17.698Z,12.13
2023-04-09T20:45:45.642Z,11.90
2023-04-09T20:48:16.948Z,12.27
2023-04-09T20:50:44.401Z,12.65
2023-04-09T20:53:18.523Z,11.85
2023-04-09T20:55:49.293Z,13.27
2023-04-09T20:58:20.034Z,12.60
2023-04-09T21:00:50.017Z,13.25
2023-04-09T21:03:18.751Z,14.35
2023-04-09T21:05:47.471Z,14.30
2023-04-09T21:08:18.244Z,14.55
2023-04-09T21:10:46.348Z,13.40
2023-04-09T21:13:17.067Z,14.38
2023-04-09T21:15:47.501Z,15.10
2023-04-09T21:18:16.973Z,15.20
2023-04-09T21:20:51.592Z,14.65
2023-04-09T21:23:20.583Z,14.90
2023-04-09T21:25:51.231Z,16.63
2023-04-09T21:28:22.726Z,16.80
